sensor_id;sensor_type;location;lat;lon;timestamp;P1;durP1;ratioP1;P2;durP2;ratioP2
54983;SDS011;40884;53.562;9.940;2023-06-22T00:00:22;5.50;;;4.73;;
54983;SDS011;40884;53.562;9.940;2023-06-22T00:01:22;5.30;;;4.57;;
54983;SDS011;40884;53.562;9.940;2023-06-22T00:02:22;4.50;;;4.07;;
54983;SDS011;40884;53.562;9.940;2023-06-22T00:03:22;5.30;;;4.63;;
54983;SDS011;40884;53.562;9.940;2023-06-22T00:04:23;5.13;;;4.63;;
54983;SDS011;40884;53.562;9.940;2023-06-22T00:05:23;7.73;;;4.63;;
54983;SDS011;40884;53.562;9.940;2023-06-22T00:06:23;4.53;;;4.13;;
54983;SDS011;40884;53.562;9.940;2023-06-22T00:07:23;6.83;;;4.90;;
54983;SDS011;40884;53.562;9.940;2023-06-22T00:08:23;5.50;;;5.00;;
54983;SDS011;40884;53.562;9.940;2023-06-22T00:09:23;4.73;;;4.33;;
54983;SDS011;40884;53.562;9.940;2023-06-22T00:10:23;4.63;;;4.20;;
54983;SDS011;40884;53.562;9.940;2023-06-22T00:11:24;5.17;;;4.67;;
54983;SDS011;40884;53.562;9.940;2023-06-22T00:12:24;5.30;;;4.70;;
54983;SDS011;40884;53.562;9.940;2023-06-22T00:13:24;5.33;;;4.10;;
54983;SDS011;40884;53.562;9.940;2023-06-22T00:14:24;6.63;;;4.93;;
54983;SDS011;40884;53.562;9.940;2023-06-22T00:15:24;4.90;;;4.40;;
54983;SDS011;40884;53.562;9.940;2023-06-22T00:16:24;6.57;;;4.80;;
54983;SDS011;40884;53.562;9.940;2023-06-22T00:17:24;8.10;;;4.90;;
54983;SDS011;40884;53.562;9.940;2023-06-22T00:18:24;7.07;;;4.23;;
54983;SDS011;40884;53.562;9.940;2023-06-22T00:19:25;7.43;;;4.90;;
54983;SDS011;40884;53.562;9.940;2023-06-22T00:20:25;5.73;;;4.47;;
54983;SDS011;40884;53.562;9.940;2023-06-22T00:21:26;5.47;;;4.73;;
54983;SDS011;40884;53.562;9.940;2023-06-22T00:22:26;7.20;;;4.70;;
54983;SDS011;40884;53.562;9.940;2023-06-22T00:23:26;5.33;;;4.53;;
54983;SDS011;40884;53.562;9.940;2023-06-22T00:24:26;5.47;;;4.70;;
54983;SDS011;40884;53.562;9.940;2023-06-22T00:25:27;4.67;;;4.10;;
54983;SDS011;40884;53.562;9.940;2023-06-22T00:26:27;4.67;;;4.27;;
54983;SDS011;40884;53.562;9.940;2023-06-22T00:27:27;6.43;;;4.63;;
54983;SDS011;40884;53.562;9.940;2023-06-22T00:28:27;6.13;;;4.80;;
54983;SDS011;40884;53.562;9.940;2023-06-22T00:29:27;4.97;;;4.37;;
54983;SDS011;40884;53.562;9.940;2023-06-22T00:30:30;7.27;;;4.40;;
54983;SDS011;40884;53.562;9.940;2023-06-22T00:31:31;4.77;;;4.37;;
54983;SDS011;40884;53.562;9.940;2023-06-22T00:32:31;4.93;;;4.33;;
54983;SDS011;40884;53.562;9.940;2023-06-22T00:33:31;7.23;;;5.10;;
54983;SDS011;40884;53.562;9.940;2023-06-22T00:34:31;7.33;;;4.23;;
54983;SDS011;40884;53.562;9.940;2023-06-22T00:35:33;4.97;;;4.27;;
54983;SDS011;40884;53.562;9.940;2023-06-22T00:36:34;5.27;;;4.70;;
54983;SDS011;40884;53.562;9.940;2023-06-22T00:37:34;9.53;;;5.13;;
54983;SDS011;40884;53.562;9.940;2023-06-22T00:38:35;5.40;;;4.90;;
54983;SDS011;40884;53.562;9.940;2023-06-22T00:39:35;6.17;;;4.53;;
54983;SDS011;40884;53.562;9.940;2023-06-22T00:40:35;6.70;;;4.97;;
54983;SDS011;40884;53.562;9.940;2023-06-22T00:41:35;5.17;;;4.20;;
54983;SDS011;40884;53.562;9.940;2023-06-22T00:42:38;5.67;;;4.57;;
54983;SDS011;40884;53.562;9.940;2023-06-22T00:43:38;8.10;;;4.60;;
54983;SDS011;40884;53.562;9.940;2023-06-22T00:44:38;5.93;;;4.83;;
54983;SDS011;40884;53.562;9.940;2023-06-22T00:45:38;6.40;;;5.00;;
54983;SDS011;40884;53.562;9.940;2023-06-22T00:46:39;5.93;;;5.03;;
54983;SDS011;40884;53.562;9.940;2023-06-22T00:47:39;4.63;;;4.10;;
54983;SDS011;40884;53.562;9.940;2023-06-22T00:48:39;5.47;;;4.73;;
54983;SDS011;40884;53.562;9.940;2023-06-22T00:49:39;6.60;;;4.77;;
54983;SDS011;40884;53.562;9.940;2023-06-22T00:50:40;7.57;;;4.93;;
54983;SDS011;40884;53.562;9.940;2023-06-22T00:51:40;7.57;;;4.77;;
54983;SDS011;40884;53.562;9.940;2023-06-22T00:52:40;5.17;;;4.67;;
54983;SDS011;40884;53.562;9.940;2023-06-22T00:53:41;5.83;;;5.27;;
54983;SDS011;40884;53.562;9.940;2023-06-22T00:54:41;6.57;;;5.43;;
54983;SDS011;40884;53.562;9.940;2023-06-22T00:55:42;7.47;;;5.30;;
54983;SDS011;40884;53.562;9.940;2023-06-22T00:56:42;5.20;;;4.70;;
54983;SDS011;40884;53.562;9.940;2023-06-22T00:57:42;6.10;;;5.17;;
54983;SDS011;40884;53.562;9.940;2023-06-22T00:58:42;6.30;;;4.80;;
54983;SDS011;40884;53.562;9.940;2023-06-22T00:59:43;5.10;;;4.60;;
54983;SDS011;40884;53.562;9.940;2023-06-22T01:00:44;6.20;;;5.40;;
54983;SDS011;40884;53.562;9.940;2023-06-22T01:01:44;5.37;;;4.60;;
54983;SDS011;40884;53.562;9.940;2023-06-22T01:02:44;5.90;;;4.73;;
54983;SDS011;40884;53.562;9.940;2023-06-22T01:03:45;5.70;;;4.73;;
54983;SDS011;40884;53.562;9.940;2023-06-22T01:04:45;5.30;;;4.80;;
54983;SDS011;40884;53.562;9.940;2023-06-22T01:05:45;6.13;;;5.17;;
54983;SDS011;40884;53.562;9.940;2023-06-22T01:06:49;5.47;;;4.97;;
54983;SDS011;40884;53.562;9.940;2023-06-22T01:07:56;7.00;;;5.40;;
54983;SDS011;40884;53.562;9.940;2023-06-22T01:09:06;5.80;;;5.30;;
54983;SDS011;40884;53.562;9.940;2023-06-22T01:10:22;6.37;;;5.77;;
54983;SDS011;40884;53.562;9.940;2023-06-22T01:11:41;6.13;;;5.30;;
54983;SDS011;40884;53.562;9.940;2023-06-22T01:12:45;5.37;;;4.87;;
54983;SDS011;40884;53.562;9.940;2023-06-22T01:13:50;7.10;;;5.57;;
54983;SDS011;40884;53.562;9.940;2023-06-22T01:15:08;6.93;;;5.40;;
54983;SDS011;40884;53.562;9.940;2023-06-22T01:16:26;5.50;;;5.00;;
54983;SDS011;40884;53.562;9.940;2023-06-22T01:17:27;5.90;;;5.30;;
54983;SDS011;40884;53.562;9.940;2023-06-22T01:18:28;6.27;;;5.67;;
54983;SDS011;40884;53.562;9.940;2023-06-22T01:19:38;8.63;;;5.47;;
54983;SDS011;40884;53.562;9.940;2023-06-22T01:20:39;5.27;;;4.70;;
54983;SDS011;40884;53.562;9.940;2023-06-22T01:21:40;5.97;;;4.90;;
54983;SDS011;40884;53.562;9.940;2023-06-22T01:23:46;6.13;;;4.87;;
54983;SDS011;40884;53.562;9.940;2023-06-22T01:24:23;5.87;;;5.27;;
54983;SDS011;40884;53.562;9.940;2023-06-22T01:25:26;6.23;;;4.77;;
54983;SDS011;40884;53.562;9.940;2023-06-22T01:26:35;5.70;;;4.87;;
54983;SDS011;40884;53.562;9.940;2023-06-22T01:28:53;6.33;;;5.73;;
54983;SDS011;40884;53.562;9.940;2023-06-22T01:29:57;5.87;;;4.70;;
54983;SDS011;40884;53.562;9.940;2023-06-22T01:30:58;5.83;;;5.23;;
54983;SDS011;40884;53.562;9.940;2023-06-22T01:31:59;7.10;;;4.83;;
54983;SDS011;40884;53.562;9.940;2023-06-22T01:33:02;6.80;;;4.67;;
54983;SDS011;40884;53.562;9.940;2023-06-22T01:34:04;6.20;;;5.20;;
54983;SDS011;40884;53.562;9.940;2023-06-22T01:35:05;7.00;;;4.50;;
54983;SDS011;40884;53.562;9.940;2023-06-22T01:36:06;7.57;;;4.77;;
54983;SDS011;40884;53.562;9.940;2023-06-22T01:37:06;4.80;;;4.30;;
54983;SDS011;40884;53.562;9.940;2023-06-22T01:38:07;6.37;;;5.00;;
54983;SDS011;40884;53.562;9.940;2023-06-22T01:39:08;6.10;;;5.37;;
54983;SDS011;40884;53.562;9.940;2023-06-22T01:40:08;7.70;;;5.50;;
54983;SDS011;40884;53.562;9.940;2023-06-22T01:41:09;6.77;;;5.53;;
54983;SDS011;40884;53.562;9.940;2023-06-22T01:42:10;7.37;;;5.47;;
54983;SDS011;40884;53.562;9.940;2023-06-22T01:43:10;6.47;;;5.13;;
54983;SDS011;40884;53.562;9.940;2023-06-22T01:44:10;5.77;;;4.47;;
54983;SDS011;40884;53.562;9.940;2023-06-22T01:45:11;5.97;;;5.47;;
54983;SDS011;40884;53.562;9.940;2023-06-22T01:46:12;5.53;;;4.47;;
54983;SDS011;40884;53.562;9.940;2023-06-22T01:47:12;5.70;;;4.70;;
54983;SDS011;40884;53.562;9.940;2023-06-22T01:48:13;6.77;;;5.27;;
54983;SDS011;40884;53.562;9.940;2023-06-22T01:49:13;6.40;;;5.23;;
54983;SDS011;40884;53.562;9.940;2023-06-22T01:50:14;6.10;;;5.50;;
54983;SDS011;40884;53.562;9.940;2023-06-22T01:51:15;7.60;;;5.93;;
54983;SDS011;40884;53.562;9.940;2023-06-22T01:52:15;5.80;;;5.20;;
54983;SDS011;40884;53.562;9.940;2023-06-22T01:53:15;7.27;;;5.70;;
54983;SDS011;40884;53.562;9.940;2023-06-22T01:54:15;8.77;;;4.57;;
54983;SDS011;40884;53.562;9.940;2023-06-22T01:55:15;6.10;;;5.50;;
54983;SDS011;40884;53.562;9.940;2023-06-22T01:56:16;9.23;;;4.40;;
54983;SDS011;40884;53.562;9.940;2023-06-22T01:57:17;8.77;;;5.53;;
54983;SDS011;40884;53.562;9.940;2023-06-22T01:58:17;6.37;;;5.13;;
54983;SDS011;40884;53.562;9.940;2023-06-22T01:59:27;7.47;;;5.10;;
54983;SDS011;40884;53.562;9.940;2023-06-22T02:00:30;6.27;;;5.60;;
54983;SDS011;40884;53.562;9.940;2023-06-22T02:01:32;7.53;;;5.87;;
54983;SDS011;40884;53.562;9.940;2023-06-22T02:02:36;6.17;;;5.57;;
54983;SDS011;40884;53.562;9.940;2023-06-22T02:03:41;6.50;;;5.30;;
54983;SDS011;40884;53.562;9.940;2023-06-22T02:04:47;7.07;;;5.70;;
54983;SDS011;40884;53.562;9.940;2023-06-22T02:05:49;6.40;;;5.80;;
54983;SDS011;40884;53.562;9.940;2023-06-22T02:06:50;5.90;;;5.17;;
54983;SDS011;40884;53.562;9.940;2023-06-22T02:08:00;7.43;;;5.77;;
54983;SDS011;40884;53.562;9.940;2023-06-22T02:09:07;6.30;;;5.70;;
54983;SDS011;40884;53.562;9.940;2023-06-22T02:10:08;7.03;;;5.90;;
54983;SDS011;40884;53.562;9.940;2023-06-22T02:11:09;6.43;;;5.73;;
54983;SDS011;40884;53.562;9.940;2023-06-22T02:12:10;6.37;;;5.77;;
54983;SDS011;40884;53.562;9.940;2023-06-22T02:13:11;6.67;;;5.90;;
54983;SDS011;40884;53.562;9.940;2023-06-22T02:14:11;7.03;;;5.80;;
54983;SDS011;40884;53.562;9.940;2023-06-22T02:15:13;8.87;;;6.33;;
54983;SDS011;40884;53.562;9.940;2023-06-22T02:16:13;7.30;;;5.50;;
54983;SDS011;40884;53.562;9.940;2023-06-22T02:17:14;6.80;;;6.20;;
54983;SDS011;40884;53.562;9.940;2023-06-22T02:18:14;5.27;;;4.63;;
54983;SDS011;40884;53.562;9.940;2023-06-22T02:19:15;7.57;;;5.93;;
54983;SDS011;40884;53.562;9.940;2023-06-22T02:20:15;6.20;;;5.60;;
54983;SDS011;40884;53.562;9.940;2023-06-22T02:21:15;6.63;;;5.60;;
54983;SDS011;40884;53.562;9.940;2023-06-22T02:22:15;7.10;;;5.70;;
54983;SDS011;40884;53.562;9.940;2023-06-22T02:23:18;8.60;;;6.10;;
54983;SDS011;40884;53.562;9.940;2023-06-22T02:24:18;6.57;;;5.47;;
54983;SDS011;40884;53.562;9.940;2023-06-22T02:25:18;6.40;;;5.73;;
54983;SDS011;40884;53.562;9.940;2023-06-22T02:26:19;6.50;;;4.87;;
54983;SDS011;40884;53.562;9.940;2023-06-22T02:27:20;6.67;;;5.97;;
54983;SDS011;40884;53.562;9.940;2023-06-22T02:28:22;6.00;;;5.40;;
54983;SDS011;40884;53.562;9.940;2023-06-22T02:29:22;7.40;;;6.03;;
54983;SDS011;40884;53.562;9.940;2023-06-22T02:30:22;6.70;;;6.00;;
54983;SDS011;40884;53.562;9.940;2023-06-22T02:31:22;6.07;;;5.47;;
54983;SDS011;40884;53.562;9.940;2023-06-22T02:32:22;7.83;;;5.60;;
54983;SDS011;40884;53.562;9.940;2023-06-22T02:33:22;5.83;;;5.10;;
54983;SDS011;40884;53.562;9.940;2023-06-22T02:34:23;6.63;;;5.53;;
54983;SDS011;40884;53.562;9.940;2023-06-22T02:35:28;6.50;;;5.87;;
54983;SDS011;40884;53.562;9.940;2023-06-22T02:36:28;6.43;;;5.63;;
54983;SDS011;40884;53.562;9.940;2023-06-22T02:37:28;5.70;;;5.10;;
54983;SDS011;40884;53.562;9.940;2023-06-22T02:38:28;6.73;;;5.63;;
54983;SDS011;40884;53.562;9.940;2023-06-22T02:39:28;7.70;;;7.00;;
54983;SDS011;40884;53.562;9.940;2023-06-22T02:40:29;6.60;;;5.90;;
54983;SDS011;40884;53.562;9.940;2023-06-22T02:41:30;6.43;;;5.07;;
54983;SDS011;40884;53.562;9.940;2023-06-22T02:42:30;7.77;;;6.40;;
54983;SDS011;40884;53.562;9.940;2023-06-22T02:43:30;6.83;;;6.13;;
54983;SDS011;40884;53.562;9.940;2023-06-22T02:44:30;6.43;;;5.83;;
54983;SDS011;40884;53.562;9.940;2023-06-22T02:45:30;8.97;;;6.67;;
54983;SDS011;40884;53.562;9.940;2023-06-22T02:46:31;8.23;;;6.47;;
54983;SDS011;40884;53.562;9.940;2023-06-22T02:47:31;6.83;;;6.07;;
54983;SDS011;40884;53.562;9.940;2023-06-22T02:48:31;7.40;;;6.43;;
54983;SDS011;40884;53.562;9.940;2023-06-22T02:49:32;7.13;;;6.43;;
54983;SDS011;40884;53.562;9.940;2023-06-22T02:50:32;7.80;;;6.70;;
54983;SDS011;40884;53.562;9.940;2023-06-22T02:51:33;6.20;;;5.60;;
54983;SDS011;40884;53.562;9.940;2023-06-22T02:52:33;10.27;;;5.83;;
54983;SDS011;40884;53.562;9.940;2023-06-22T02:53:33;8.33;;;6.63;;
54983;SDS011;40884;53.562;9.940;2023-06-22T02:54:34;7.70;;;6.27;;
54983;SDS011;40884;53.562;9.940;2023-06-22T02:55:34;8.27;;;6.67;;
54983;SDS011;40884;53.562;9.940;2023-06-22T02:56:34;7.53;;;6.73;;
54983;SDS011;40884;53.562;9.940;2023-06-22T02:57:35;8.80;;;6.60;;
54983;SDS011;40884;53.562;9.940;2023-06-22T02:58:35;6.90;;;5.97;;
54983;SDS011;40884;53.562;9.940;2023-06-22T02:59:36;9.33;;;6.70;;
54983;SDS011;40884;53.562;9.940;2023-06-22T03:00:42;7.30;;;6.30;;
54983;SDS011;40884;53.562;9.940;2023-06-22T03:01:42;8.17;;;6.37;;
54983;SDS011;40884;53.562;9.940;2023-06-22T03:02:51;6.70;;;5.90;;
54983;SDS011;40884;53.562;9.940;2023-06-22T03:03:52;9.77;;;7.07;;
54983;SDS011;40884;53.562;9.940;2023-06-22T03:04:52;7.37;;;6.67;;
54983;SDS011;40884;53.562;9.940;2023-06-22T03:05:52;7.77;;;6.67;;
54983;SDS011;40884;53.562;9.940;2023-06-22T03:06:53;7.67;;;6.87;;
54983;SDS011;40884;53.562;9.940;2023-06-22T03:07:53;7.00;;;6.30;;
54983;SDS011;40884;53.562;9.940;2023-06-22T03:08:59;6.80;;;5.83;;
54983;SDS011;40884;53.562;9.940;2023-06-22T03:09:59;7.03;;;6.23;;
54983;SDS011;40884;53.562;9.940;2023-06-22T03:11:00;7.97;;;6.30;;
54983;SDS011;40884;53.562;9.940;2023-06-22T03:12:00;7.27;;;6.53;;
54983;SDS011;40884;53.562;9.940;2023-06-22T03:13:08;8.57;;;7.03;;
54983;SDS011;40884;53.562;9.940;2023-06-22T03:14:08;8.00;;;6.97;;
54983;SDS011;40884;53.562;9.940;2023-06-22T03:15:11;9.17;;;7.20;;
54983;SDS011;40884;53.562;9.940;2023-06-22T03:16:12;8.00;;;7.00;;
54983;SDS011;40884;53.562;9.940;2023-06-22T03:17:12;7.60;;;6.43;;
54983;SDS011;40884;53.562;9.940;2023-06-22T03:18:12;7.90;;;6.63;;
54983;SDS011;40884;53.562;9.940;2023-06-22T03:19:12;9.60;;;7.07;;
54983;SDS011;40884;53.562;9.940;2023-06-22T03:20:13;7.93;;;6.53;;
54983;SDS011;40884;53.562;9.940;2023-06-22T03:21:13;8.10;;;7.30;;
54983;SDS011;40884;53.562;9.940;2023-06-22T03:22:13;10.73;;;6.53;;
54983;SDS011;40884;53.562;9.940;2023-06-22T03:23:13;8.27;;;6.70;;
54983;SDS011;40884;53.562;9.940;2023-06-22T03:24:13;7.63;;;5.67;;
54983;SDS011;40884;53.562;9.940;2023-06-22T03:25:13;7.17;;;6.20;;
54983;SDS011;40884;53.562;9.940;2023-06-22T03:26:17;9.20;;;6.80;;
54983;SDS011;40884;53.562;9.940;2023-06-22T03:27:17;7.43;;;6.03;;
54983;SDS011;40884;53.562;9.940;2023-06-22T03:28:17;7.50;;;5.40;;
54983;SDS011;40884;53.562;9.940;2023-06-22T03:29:17;7.27;;;6.20;;
54983;SDS011;40884;53.562;9.940;2023-06-22T03:30:19;9.27;;;7.63;;
54983;SDS011;40884;53.562;9.940;2023-06-22T03:31:19;8.23;;;6.87;;
54983;SDS011;40884;53.562;9.940;2023-06-22T03:32:19;6.93;;;5.83;;
54983;SDS011;40884;53.562;9.940;2023-06-22T03:33:20;7.47;;;6.77;;
54983;SDS011;40884;53.562;9.940;2023-06-22T03:34:20;16.03;;;8.07;;
54983;SDS011;40884;53.562;9.940;2023-06-22T03:35:20;11.27;;;8.10;;
54983;SDS011;40884;53.562;9.940;2023-06-22T03:36:20;9.57;;;7.53;;
54983;SDS011;40884;53.562;9.940;2023-06-22T03:37:21;9.23;;;7.47;;
54983;SDS011;40884;53.562;9.940;2023-06-22T03:38:21;9.07;;;7.43;;
54983;SDS011;40884;53.562;9.940;2023-06-22T03:39:21;7.77;;;6.83;;
54983;SDS011;40884;53.562;9.940;2023-06-22T03:40:21;8.83;;;7.33;;
54983;SDS011;40884;53.562;9.940;2023-06-22T03:41:21;9.33;;;8.13;;
54983;SDS011;40884;53.562;9.940;2023-06-22T03:42:22;9.67;;;7.23;;
54983;SDS011;40884;53.562;9.940;2023-06-22T03:43:23;9.50;;;8.13;;
54983;SDS011;40884;53.562;9.940;2023-06-22T03:44:23;8.70;;;7.80;;
54983;SDS011;40884;53.562;9.940;2023-06-22T03:45:23;9.57;;;8.10;;
54983;SDS011;40884;53.562;9.940;2023-06-22T03:46:23;9.80;;;8.27;;
54983;SDS011;40884;53.562;9.940;2023-06-22T03:47:23;9.53;;;8.17;;
54983;SDS011;40884;53.562;9.940;2023-06-22T03:48:23;9.00;;;8.13;;
54983;SDS011;40884;53.562;9.940;2023-06-22T03:49:23;9.57;;;8.27;;
54983;SDS011;40884;53.562;9.940;2023-06-22T03:50:24;9.40;;;8.20;;
54983;SDS011;40884;53.562;9.940;2023-06-22T03:51:24;7.93;;;7.10;;
54983;SDS011;40884;53.562;9.940;2023-06-22T03:52:24;10.73;;;7.27;;
54983;SDS011;40884;53.562;9.940;2023-06-22T03:53:24;9.27;;;8.33;;
54983;SDS011;40884;53.562;9.940;2023-06-22T03:54:24;7.70;;;6.90;;
54983;SDS011;40884;53.562;9.940;2023-06-22T03:55:24;8.43;;;6.47;;
54983;SDS011;40884;53.562;9.940;2023-06-22T03:56:24;12.83;;;8.53;;
54983;SDS011;40884;53.562;9.940;2023-06-22T03:57:24;9.70;;;8.70;;
54983;SDS011;40884;53.562;9.940;2023-06-22T03:58:25;10.30;;;8.90;;
54983;SDS011;40884;53.562;9.940;2023-06-22T03:59:25;9.60;;;8.27;;
54983;SDS011;40884;53.562;9.940;2023-06-22T04:00:25;9.20;;;8.30;;
54983;SDS011;40884;53.562;9.940;2023-06-22T04:01:25;8.60;;;7.73;;
54983;SDS011;40884;53.562;9.940;2023-06-22T04:02:25;10.00;;;7.60;;
54983;SDS011;40884;53.562;9.940;2023-06-22T04:03:25;8.20;;;7.40;;
54983;SDS011;40884;53.562;9.940;2023-06-22T04:04:25;8.60;;;7.70;;
54983;SDS011;40884;53.562;9.940;2023-06-22T04:05:26;8.67;;;7.77;;
54983;SDS011;40884;53.562;9.940;2023-06-22T04:06:26;9.27;;;7.27;;
54983;SDS011;40884;53.562;9.940;2023-06-22T04:07:26;8.37;;;7.57;;
54983;SDS011;40884;53.562;9.940;2023-06-22T04:08:26;8.30;;;7.50;;
54983;SDS011;40884;53.562;9.940;2023-06-22T04:09:26;8.20;;;6.97;;
54983;SDS011;40884;53.562;9.940;2023-06-22T04:10:26;8.67;;;7.77;;
54983;SDS011;40884;53.562;9.940;2023-06-22T04:11:26;7.93;;;7.23;;
54983;SDS011;40884;53.562;9.940;2023-06-22T04:12:26;8.77;;;7.43;;
54983;SDS011;40884;53.562;9.940;2023-06-22T04:13:26;10.07;;;7.87;;
54983;SDS011;40884;53.562;9.940;2023-06-22T04:14:27;8.63;;;7.73;;
54983;SDS011;40884;53.562;9.940;2023-06-22T04:15:27;10.63;;;8.30;;
54983;SDS011;40884;53.562;9.940;2023-06-22T04:16:27;8.30;;;7.47;;
54983;SDS011;40884;53.562;9.940;2023-06-22T04:17:27;7.97;;;5.97;;
54983;SDS011;40884;53.562;9.940;2023-06-22T04:18:27;7.83;;;7.07;;
54983;SDS011;40884;53.562;9.940;2023-06-22T04:19:27;10.97;;;7.43;;
54983;SDS011;40884;53.562;9.940;2023-06-22T04:20:27;8.37;;;7.47;;
54983;SDS011;40884;53.562;9.940;2023-06-22T04:21:28;7.83;;;7.03;;
54983;SDS011;40884;53.562;9.940;2023-06-22T04:22:28;7.73;;;6.97;;
54983;SDS011;40884;53.562;9.940;2023-06-22T04:23:28;8.20;;;7.40;;
54983;SDS011;40884;53.562;9.940;2023-06-22T04:24:28;10.17;;;7.57;;
54983;SDS011;40884;53.562;9.940;2023-06-22T04:25:28;7.63;;;6.80;;
54983;SDS011;40884;53.562;9.940;2023-06-22T04:26:28;9.60;;;7.30;;
54983;SDS011;40884;53.562;9.940;2023-06-22T04:27:28;9.87;;;7.40;;
54983;SDS011;40884;53.562;9.940;2023-06-22T04:28:28;9.13;;;7.33;;
54983;SDS011;40884;53.562;9.940;2023-06-22T04:29:29;7.77;;;6.87;;
54983;SDS011;40884;53.562;9.940;2023-06-22T04:30:29;8.37;;;7.27;;
54983;SDS011;40884;53.562;9.940;2023-06-22T04:31:30;9.37;;;7.17;;
54983;SDS011;40884;53.562;9.940;2023-06-22T04:32:30;8.70;;;7.13;;
54983;SDS011;40884;53.562;9.940;2023-06-22T04:33:31;7.03;;;6.10;;
54983;SDS011;40884;53.562;9.940;2023-06-22T04:34:31;8.27;;;6.37;;
54983;SDS011;40884;53.562;9.940;2023-06-22T04:35:31;7.53;;;6.47;;
54983;SDS011;40884;53.562;9.940;2023-06-22T04:36:35;7.00;;;6.30;;
54983;SDS011;40884;53.562;9.940;2023-06-22T04:37:36;7.00;;;5.50;;
54983;SDS011;40884;53.562;9.940;2023-06-22T04:38:36;7.83;;;6.63;;
54983;SDS011;40884;53.562;9.940;2023-06-22T04:39:36;8.30;;;6.70;;
54983;SDS011;40884;53.562;9.940;2023-06-22T04:40:36;8.83;;;6.73;;
54983;SDS011;40884;53.562;9.940;2023-06-22T04:41:36;9.43;;;6.67;;
54983;SDS011;40884;53.562;9.940;2023-06-22T04:42:37;7.47;;;6.23;;
54983;SDS011;40884;53.562;9.940;2023-06-22T04:43:37;7.13;;;6.37;;
54983;SDS011;40884;53.562;9.940;2023-06-22T04:44:37;8.63;;;6.83;;
54983;SDS011;40884;53.562;9.940;2023-06-22T04:45:38;6.63;;;5.93;;
54983;SDS011;40884;53.562;9.940;2023-06-22T04:46:38;6.73;;;6.13;;
54983;SDS011;40884;53.562;9.940;2023-06-22T04:47:38;6.40;;;5.70;;
54983;SDS011;40884;53.562;9.940;2023-06-22T04:48:38;6.77;;;6.07;;
54983;SDS011;40884;53.562;9.940;2023-06-22T04:49:38;7.60;;;6.50;;
54983;SDS011;40884;53.562;9.940;2023-06-22T04:50:38;6.37;;;5.70;;
54983;SDS011;40884;53.562;9.940;2023-06-22T04:51:39;9.10;;;6.70;;
54983;SDS011;40884;53.562;9.940;2023-06-22T04:52:39;8.43;;;6.53;;
54983;SDS011;40884;53.562;9.940;2023-06-22T04:53:40;6.90;;;6.20;;
54983;SDS011;40884;53.562;9.940;2023-06-22T04:54:40;8.67;;;5.87;;
54983;SDS011;40884;53.562;9.940;2023-06-22T04:55:40;7.00;;;6.00;;
54983;SDS011;40884;53.562;9.940;2023-06-22T04:56:40;7.03;;;5.53;;
54983;SDS011;40884;53.562;9.940;2023-06-22T04:57:40;9.07;;;7.00;;
54983;SDS011;40884;53.562;9.940;2023-06-22T04:58:40;7.67;;;6.37;;
54983;SDS011;40884;53.562;9.940;2023-06-22T04:59:41;6.73;;;5.67;;
54983;SDS011;40884;53.562;9.940;2023-06-22T05:00:41;7.87;;;6.17;;
54983;SDS011;40884;53.562;9.940;2023-06-22T05:01:41;7.13;;;5.80;;
54983;SDS011;40884;53.562;9.940;2023-06-22T05:02:41;6.97;;;5.80;;
54983;SDS011;40884;53.562;9.940;2023-06-22T05:03:42;8.03;;;6.53;;
54983;SDS011;40884;53.562;9.940;2023-06-22T05:04:42;7.90;;;5.77;;
54983;SDS011;40884;53.562;9.940;2023-06-22T05:05:42;6.13;;;5.53;;
54983;SDS011;40884;53.562;9.940;2023-06-22T05:06:42;7.07;;;6.37;;
54983;SDS011;40884;53.562;9.940;2023-06-22T05:07:43;7.97;;;6.13;;
54983;SDS011;40884;53.562;9.940;2023-06-22T05:08:43;8.63;;;6.13;;
54983;SDS011;40884;53.562;9.940;2023-06-22T05:09:43;8.80;;;7.30;;
54983;SDS011;40884;53.562;9.940;2023-06-22T05:10:43;7.07;;;5.97;;
54983;SDS011;40884;53.562;9.940;2023-06-22T05:11:44;7.17;;;6.43;;
54983;SDS011;40884;53.562;9.940;2023-06-22T05:12:44;7.80;;;6.20;;
54983;SDS011;40884;53.562;9.940;2023-06-22T05:13:44;8.73;;;6.97;;
54983;SDS011;40884;53.562;9.940;2023-06-22T05:14:44;7.37;;;6.33;;
54983;SDS011;40884;53.562;9.940;2023-06-22T05:15:44;7.50;;;6.63;;
54983;SDS011;40884;53.562;9.940;2023-06-22T05:16:46;7.20;;;5.50;;
54983;SDS011;40884;53.562;9.940;2023-06-22T05:17:46;7.13;;;6.20;;
54983;SDS011;40884;53.562;9.940;2023-06-22T05:18:46;7.37;;;6.33;;
54983;SDS011;40884;53.562;9.940;2023-06-22T05:19:46;8.93;;;6.87;;
54983;SDS011;40884;53.562;9.940;2023-06-22T05:20:46;7.17;;;5.90;;
54983;SDS011;40884;53.562;9.940;2023-06-22T05:21:46;8.10;;;5.73;;
54983;SDS011;40884;53.562;9.940;2023-06-22T05:22:46;7.27;;;5.50;;
54983;SDS011;40884;53.562;9.940;2023-06-22T05:23:47;7.23;;;5.33;;
54983;SDS011;40884;53.562;9.940;2023-06-22T05:24:47;6.00;;;5.40;;
54983;SDS011;40884;53.562;9.940;2023-06-22T05:25:47;5.60;;;5.00;;
54983;SDS011;40884;53.562;9.940;2023-06-22T05:26:47;5.87;;;4.90;;
54983;SDS011;40884;53.562;9.940;2023-06-22T05:27:47;7.00;;;5.23;;
54983;SDS011;40884;53.562;9.940;2023-06-22T05:28:47;5.93;;;5.10;;
54983;SDS011;40884;53.562;9.940;2023-06-22T05:29:48;7.47;;;4.83;;
54983;SDS011;40884;53.562;9.940;2023-06-22T05:30:48;6.30;;;4.60;;
54983;SDS011;40884;53.562;9.940;2023-06-22T05:31:48;5.63;;;4.53;;
54983;SDS011;40884;53.562;9.940;2023-06-22T05:32:49;6.57;;;4.73;;
54983;SDS011;40884;53.562;9.940;2023-06-22T05:33:50;6.40;;;5.03;;
54983;SDS011;40884;53.562;9.940;2023-06-22T05:34:51;6.13;;;5.53;;
54983;SDS011;40884;53.562;9.940;2023-06-22T05:35:51;7.27;;;5.10;;
54983;SDS011;40884;53.562;9.940;2023-06-22T05:36:51;6.40;;;4.70;;
54983;SDS011;40884;53.562;9.940;2023-06-22T05:37:51;6.30;;;4.77;;
54983;SDS011;40884;53.562;9.940;2023-06-22T05:38:51;8.57;;;5.50;;
54983;SDS011;40884;53.562;9.940;2023-06-22T05:39:52;7.57;;;5.23;;
54983;SDS011;40884;53.562;9.940;2023-06-22T05:40:52;7.23;;;5.30;;
54983;SDS011;40884;53.562;9.940;2023-06-22T05:41:52;6.20;;;4.80;;
54983;SDS011;40884;53.562;9.940;2023-06-22T05:42:52;9.93;;;5.30;;
54983;SDS011;40884;53.562;9.940;2023-06-22T05:43:52;7.27;;;4.37;;
54983;SDS011;40884;53.562;9.940;2023-06-22T05:44:53;9.87;;;5.00;;
54983;SDS011;40884;53.562;9.940;2023-06-22T05:45:53;7.17;;;5.03;;
54983;SDS011;40884;53.562;9.940;2023-06-22T05:46:53;6.83;;;4.73;;
54983;SDS011;40884;53.562;9.940;2023-06-22T05:47:53;5.70;;;4.70;;
54983;SDS011;40884;53.562;9.940;2023-06-22T05:48:53;5.53;;;4.83;;
54983;SDS011;40884;53.562;9.940;2023-06-22T05:49:53;6.90;;;5.00;;
54983;SDS011;40884;53.562;9.940;2023-06-22T05:50:54;7.67;;;5.07;;
54983;SDS011;40884;53.562;9.940;2023-06-22T05:51:54;7.20;;;4.70;;
54983;SDS011;40884;53.562;9.940;2023-06-22T05:52:54;6.20;;;4.77;;
54983;SDS011;40884;53.562;9.940;2023-06-22T05:53:54;5.87;;;4.77;;
54983;SDS011;40884;53.562;9.940;2023-06-22T05:54:54;8.27;;;4.97;;
54983;SDS011;40884;53.562;9.940;2023-06-22T05:55:54;6.13;;;4.43;;
54983;SDS011;40884;53.562;9.940;2023-06-22T05:56:54;5.27;;;4.30;;
54983;SDS011;40884;53.562;9.940;2023-06-22T05:57:54;7.10;;;4.10;;
54983;SDS011;40884;53.562;9.940;2023-06-22T05:58:55;5.30;;;4.47;;
54983;SDS011;40884;53.562;9.940;2023-06-22T05:59:55;6.80;;;4.27;;
54983;SDS011;40884;53.562;9.940;2023-06-22T06:00:55;5.77;;;3.77;;
54983;SDS011;40884;53.562;9.940;2023-06-22T06:01:55;7.40;;;4.10;;
54983;SDS011;40884;53.562;9.940;2023-06-22T06:02:55;5.10;;;3.90;;
54983;SDS011;40884;53.562;9.940;2023-06-22T06:03:55;4.63;;;3.80;;
54983;SDS011;40884;53.562;9.940;2023-06-22T06:04:56;5.47;;;3.90;;
54983;SDS011;40884;53.562;9.940;2023-06-22T06:05:56;4.67;;;3.90;;
54983;SDS011;40884;53.562;9.940;2023-06-22T06:06:56;5.10;;;3.80;;
54983;SDS011;40884;53.562;9.940;2023-06-22T06:07:56;4.83;;;3.80;;
54983;SDS011;40884;53.562;9.940;2023-06-22T06:08:56;5.50;;;3.70;;